Time;durP1;ratioP1;P1;durP2;ratioP2;P2;SDS_P1;SDS_P2;PMS_P1;PMS_P2;Temp;Humidity;BMP_temperature;BMP_pressure;BME280_temperature;BME280_humidity;BME280_pressure;Samples;Min_cycle;Max_cycle;Signal;HPM_P1;HPM_P2
2023/10/20 00:01:07;;;;;;;23.38;15.38;;;15.50;99.90;;;;;;5053104;28;20388;-75
2023/10/20 00:03:33;;;;;;;19.40;16.52;;;15.50;99.90;;;;;;5053849;28;20036;-76
2023/10/20 00:05:59;;;;;;;23.70;16.55;;;15.40;99.90;;;;;;5053531;28;20040;-76
2023/10/20 00:08:25;;;;;;;19.25;15.23;;;15.30;99.90;;;;;;5053472;28;20408;-75
2023/10/20 00:10:50;;;;;;;20.65;16.45;;;15.30;99.90;;;;;;5053768;28;20029;-76
2023/10/20 00:13:16;;;;;;;22.88;17.92;;;15.30;99.90;;;;;;5053735;28;20029;-75
2023/10/20 00:15:45;;;;;;;23.92;18.02;;;15.20;99.90;;;;;;5053372;28;20098;-75
2023/10/20 00:18:11;;;;;;;19.95;16.27;;;15.20;99.90;;;;;;5053294;28;20029;-75
2023/10/20 00:20:36;;;;;;;18.75;16.80;;;15.20;99.90;;;;;;5052925;28;20025;-75
2023/10/20 00:23:02;;;;;;;24.63;18.73;;;15.30;99.90;;;;;;5053082;28;20534;-76
2023/10/20 00:25:28;;;;;;;27.13;19.55;;;15.30;99.90;;;;;;5035498;28;20079;-76
2023/10/20 00:27:55;;;;;;;24.88;20.98;;;15.30;99.90;;;;;;5035684;28;20079;-76
2023/10/20 00:30:21;;;;;;;27.00;19.20;;;15.20;99.90;;;;;;5035383;28;20115;-75
2023/10/20 00:32:47;;;;;;;28.83;19.83;;;15.20;99.90;;;;;;5036255;28;20473;-75
2023/10/20 00:35:13;;;;;;;26.42;20.33;;;15.20;99.90;;;;;;5053240;28;20056;-76
2023/10/20 00:37:39;;;;;;;26.20;20.45;;;15.20;99.90;;;;;;5053213;28;20029;-75
2023/10/20 00:40:09;;;;;;;22.63;19.00;;;15.10;99.90;;;;;;5052941;28;20032;-76
2023/10/20 00:42:35;;;;;;;25.65;19.17;;;15.10;99.90;;;;;;5035819;28;20549;-75
2023/10/20 00:45:01;;;;;;;23.98;19.75;;;15.20;99.90;;;;;;5035818;28;20037;-75
2023/10/20 00:47:28;;;;;;;28.48;20.90;;;15.20;99.90;;;;;;5018656;28;20021;-75
2023/10/20 00:49:55;;;;;;;26.92;19.70;;;15.20;99.90;;;;;;5053136;28;20029;-75
2023/10/20 00:52:22;;;;;;;25.60;19.05;;;15.10;99.90;;;;;;5035306;28;20041;-75
2023/10/20 00:54:50;;;;;;;30.83;21.80;;;15.10;99.90;;;;;;5053062;28;20029;-75
2023/10/20 00:57:18;;;;;;;26.92;20.48;;;15.20;99.90;;;;;;5052771;28;20029;-76
2023/10/20 00:59:44;;;;;;;28.45;21.15;;;15.10;99.90;;;;;;5018851;28;20025;-76
2023/10/20 01:02:12;;;;;;;26.23;20.95;;;15.10;99.90;;;;;;5052843;28;20095;-76
2023/10/20 01:04:38;;;;;;;29.23;20.40;;;15.10;99.90;;;;;;5035660;28;20056;-75
2023/10/20 01:07:04;;;;;;;29.77;21.42;;;15.10;99.90;;;;;;5053206;28;20527;-75
2023/10/20 01:09:29;;;;;;;27.20;21.75;;;15.00;99.90;;;;;;5035011;28;20025;-74
2023/10/20 01:11:55;;;;;;;27.95;20.80;;;15.00;99.90;;;;;;5052821;28;20424;-75
2023/10/20 01:14:21;;;;;;;28.25;22.65;;;14.90;99.90;;;;;;5056023;28;20526;-75
2023/10/20 01:16:47;;;;;;;25.90;21.75;;;15.00;99.90;;;;;;5056332;28;20025;-75
2023/10/20 01:19:14;;;;;;;33.72;24.73;;;14.90;99.90;;;;;;5056121;28;20033;-75
2023/10/20 01:21:40;;;;;;;32.72;25.05;;;15.00;99.90;;;;;;5055991;28;20032;-75
2023/10/20 01:24:06;;;;;;;29.70;22.95;;;14.90;99.90;;;;;;5038068;28;20029;-75
2023/10/20 01:26:32;;;;;;;27.90;22.23;;;14.80;99.90;;;;;;5055901;28;20156;-75
2023/10/20 01:28:58;;;;;;;27.95;22.90;;;14.90;99.90;;;;;;5056290;28;20032;-75
2023/10/20 01:31:24;;;;;;;30.02;22.77;;;14.80;99.90;;;;;;5055900;28;20074;-77
2023/10/20 01:33:50;;;;;;;35.03;22.95;;;14.80;99.90;;;;;;5056384;28;20096;-76
2023/10/20 01:36:16;;;;;;;31.25;23.63;;;14.90;99.90;;;;;;5056284;28;20365;-77
2023/10/20 01:38:42;;;;;;;26.88;21.77;;;14.80;99.90;;;;;;5056338;28;20036;-76
2023/10/20 01:41:07;;;;;;;30.63;22.77;;;14.80;99.90;;;;;;5038822;28;20047;-77
2023/10/20 01:43:34;;;;;;;32.55;23.45;;;14.70;99.90;;;;;;5055940;28;20025;-77
2023/10/20 01:46:01;;;;;;;28.95;22.95;;;14.70;99.90;;;;;;5055472;28;20033;-76
2023/10/20 01:48:26;;;;;;;29.25;22.40;;;14.80;99.90;;;;;;5038008;28;20025;-78
2023/10/20 01:50:52;;;;;;;30.33;23.02;;;14.70;99.90;;;;;;5037526;28;20049;-78
2023/10/20 01:53:18;;;;;;;30.25;23.15;;;14.70;99.90;;;;;;5037960;28;20391;-77
2023/10/20 01:55:50;;;;;;;34.00;24.38;;;14.70;99.90;;;;;;5038445;28;20065;-76
2023/10/20 01:58:19;;;;;;;30.63;23.13;;;14.70;99.90;;;;;;5055321;28;20554;-77
2023/10/20 02:00:49;;;;;;;33.83;24.30;;;14.70;99.90;;;;;;5037569;28;20279;-75
2023/10/20 02:03:15;;;;;;;29.65;22.77;;;14.70;99.90;;;;;;5055812;28;20040;-77
2023/10/20 02:05:40;;;;;;;34.50;24.48;;;14.60;99.90;;;;;;5055559;28;20025;-77
2023/10/20 02:08:08;;;;;;;33.50;23.58;;;14.60;99.90;;;;;;5055694;28;20116;-78
2023/10/20 02:10:34;;;;;;;34.75;25.17;;;14.60;99.90;;;;;;5055457;28;20029;-76
2023/10/20 02:13:00;;;;;;;33.20;23.98;;;14.60;99.90;;;;;;5037647;28;20040;-76
2023/10/20 02:15:26;;;;;;;34.85;24.25;;;14.50;99.90;;;;;;5037230;28;20389;-76
2023/10/20 02:17:52;;;;;;;32.95;25.63;;;14.60;99.90;;;;;;5055152;28;20032;-76
2023/10/20 02:20:20;;;;;;;30.27;23.75;;;14.60;99.90;;;;;;5054937;28;20029;-76
2023/10/20 02:22:50;;;;;;;34.63;26.05;;;14.60;99.90;;;;;;5037188;28;20469;-76
2023/10/20 02:25:16;;;;;;;35.30;24.58;;;14.50;99.90;;;;;;5054209;28;20041;-76
2023/10/20 02:27:42;;;;;;;35.50;24.55;;;14.40;99.90;;;;;;5037718;28;20032;-76
2023/10/20 02:30:12;;;;;;;36.17;25.08;;;14.40;99.90;;;;;;5055070;28;20037;-76
2023/10/20 02:32:39;;;;;;;43.30;27.75;;;14.40;99.90;;;;;;5054683;28;20106;-76
2023/10/20 02:35:06;;;;;;;37.33;25.92;;;14.40;99.90;;;;;;5054947;28;20032;-77
2023/10/20 02:37:32;;;;;;;34.40;25.13;;;14.40;99.90;;;;;;5054905;28;20120;-77
2023/10/20 02:39:57;;;;;;;32.20;25.20;;;14.30;99.90;;;;;;5054622;28;20056;-77
2023/10/20 02:42:23;;;;;;;39.35;26.33;;;14.30;99.90;;;;;;5036552;28;20084;-79
2023/10/20 02:44:49;;;;;;;43.78;26.83;;;14.40;99.90;;;;;;5054789;28;20472;-78
2023/10/20 02:47:14;;;;;;;37.40;26.55;;;14.40;99.90;;;;;;5054634;28;20373;-78
2023/10/20 02:49:40;;;;;;;42.30;28.05;;;14.30;99.90;;;;;;5036825;28;20465;-77
2023/10/20 02:52:07;;;;;;;42.08;28.35;;;14.30;99.90;;;;;;5036638;28;20057;-77
2023/10/20 02:54:34;;;;;;;41.65;28.92;;;14.30;99.90;;;;;;5054251;28;20033;-77
2023/10/20 02:57:00;;;;;;;37.15;24.90;;;14.20;99.90;;;;;;5055251;28;20457;-77
2023/10/20 02:59:25;;;;;;;45.88;30.08;;;14.20;99.90;;;;;;5054165;28;20025;-77
2023/10/20 03:01:54;;;;;;;41.97;28.30;;;14.20;99.90;;;;;;5054005;28;20404;-76
2023/10/20 03:04:19;;;;;;;40.10;26.50;;;14.10;99.90;;;;;;5054399;28;20033;-76
2023/10/20 03:06:46;;;;;;;38.67;25.80;;;14.10;99.90;;;;;;5054054;28;20464;-76
2023/10/20 03:09:13;;;;;;;39.50;25.10;;;14.10;99.90;;;;;;5019857;28;20116;-78
2023/10/20 03:11:39;;;;;;;40.05;26.95;;;14.10;99.90;;;;;;5037073;28;20065;-77
2023/10/20 03:14:05;;;;;;;45.13;28.48;;;14.10;99.90;;;;;;5053932;28;20150;-77
2023/10/20 03:16:31;;;;;;;43.35;27.60;;;14.10;99.90;;;;;;5036362;28;20033;-77
2023/10/20 03:18:57;;;;;;;42.65;27.35;;;14.00;99.90;;;;;;5054409;28;20021;-77
2023/10/20 03:21:23;;;;;;;50.03;28.65;;;14.00;99.90;;;;;;5054041;28;20439;-77
2023/10/20 03:23:49;;;;;;;47.70;29.88;;;14.00;99.90;;;;;;5053971;28;20056;-77
2023/10/20 03:26:15;;;;;;;41.03;25.90;;;14.00;99.90;;;;;;5054047;28;20024;-77
2023/10/20 03:28:41;;;;;;;41.25;26.75;;;13.90;99.90;;;;;;5035816;28;20029;-77
2023/10/20 03:31:07;;;;;;;45.50;28.10;;;13.90;99.90;;;;;;5036018;28;20120;-77
2023/10/20 03:33:33;;;;;;;44.00;27.42;;;13.90;99.90;;;;;;5054203;28;20373;-77
2023/10/20 03:36:03;;;;;;;41.90;26.35;;;13.90;99.90;;;;;;5054031;28;20036;-77
2023/10/20 03:38:29;;;;;;;43.53;27.55;;;13.90;99.90;;;;;;5036273;28;20445;-77
2023/10/20 03:41:11;;;;;;;46.15;28.38;;;13.90;99.90;;;;;;5035932;28;20025;-77
2023/10/20 03:43:40;;;;;;;46.90;29.40;;;13.80;99.90;;;;;;5054004;28;20025;-77
2023/10/20 03:46:06;;;;;;;42.80;26.85;;;13.70;99.90;;;;;;5053674;28;20033;-74
2023/10/20 03:48:34;;;;;;;47.25;28.77;;;13.70;99.90;;;;;;5053732;28;20456;-77
2023/10/20 03:51:04;;;;;;;47.78;28.70;;;13.60;99.90;;;;;;5053262;28;20041;-77
2023/10/20 03:53:39;;;;;;;48.63;28.30;;;13.60;99.90;;;;;;5053899;28;20037;-75
2023/10/20 03:56:07;;;;;;;52.75;28.85;;;13.50;99.90;;;;;;5022758;28;20029;-76
2023/10/20 03:58:35;;;;;;;43.88;27.25;;;13.50;99.90;;;;;;5019934;28;20044;-76
2023/10/20 04:01:02;;;;;;;44.08;26.83;;;13.50;99.90;;;;;;5053430;28;20048;-76
2023/10/20 04:03:30;;;;;;;42.05;27.30;;;13.60;99.90;;;;;;5053419;28;20039;-76
2023/10/20 04:05:56;;;;;;;40.45;25.55;;;13.60;99.90;;;;;;5036523;28;20021;-76
2023/10/20 04:08:23;;;;;;;47.85;29.17;;;13.60;99.90;;;;;;5053502;28;20025;-76
2023/10/20 04:10:59;;;;;;;44.15;26.80;;;13.60;99.90;;;;;;5035849;28;20128;-76
2023/10/20 04:13:25;;;;;;;47.83;28.75;;;13.40;99.90;;;;;;5053454;28;20078;-75
2023/10/20 04:15:54;;;;;;;46.67;28.25;;;13.30;99.90;;;;;;5053430;28;20029;-76
2023/10/20 04:18:20;;;;;;;44.42;27.08;;;13.20;99.90;;;;;;5053054;28;20568;-76
2023/10/20 04:20:49;;;;;;;38.70;24.77;;;13.30;99.90;;;;;;5053253;28;20079;-76
2023/10/20 04:23:16;;;;;;;41.83;24.52;;;13.30;99.90;;;;;;5036184;28;20021;-76
2023/10/20 04:26:02;;;;;;;43.40;27.45;;;13.30;99.90;;;;;;5053591;28;20029;-76
2023/10/20 04:28:42;;;;;;;43.22;26.70;;;13.30;99.90;;;;;;5053655;28;20037;-76
2023/10/20 05:00:41;;;;;;;45.97;26.67;;;13.10;99.90;;;;;;5056722;28;20039;-75
2023/10/20 05:03:16;;;;;;;40.80;24.45;;;13.10;99.90;;;;;;5039191;28;20087;-76
2023/10/20 05:05:53;;;;;;;35.78;23.65;;;13.10;99.90;;;;;;5056667;28;20036;-78
2023/10/20 05:08:22;;;;;;;33.20;21.40;;;13.00;99.90;;;;;;5039272;28;20033;-77
2023/10/20 05:10:49;;;;;;;36.65;22.05;;;13.00;99.90;;;;;;5056945;28;20033;-76
2023/10/20 05:13:16;;;;;;;32.50;21.27;;;13.00;99.90;;;;;;5038203;28;20464;-80
2023/10/20 05:15:43;;;;;;;30.65;20.52;;;13.00;99.90;;;;;;5056400;28;20029;-77
2023/10/20 05:18:12;;;;;;;31.45;19.38;;;13.00;99.90;;;;;;5055891;28;20033;-78
2023/10/20 05:20:39;;;;;;;28.70;19.25;;;13.00;99.90;;;;;;5056043;28;20025;-78
2023/10/20 05:23:05;;;;;;;28.73;17.77;;;12.90;99.90;;;;;;5038447;28;20141;-80
2023/10/20 05:25:31;;;;;;;29.88;18.95;;;12.90;99.90;;;;;;5056308;28;20025;-75
2023/10/20 05:27:57;;;;;;;23.92;16.63;;;12.90;99.90;;;;;;5038236;28;20029;-78
2023/10/20 05:30:23;;;;;;;29.05;18.42;;;12.90;99.90;;;;;;5038049;28;20477;-77
2023/10/20 05:32:49;;;;;;;26.08;17.73;;;12.90;99.90;;;;;;5056411;28;20111;-76
2023/10/20 05:35:15;;;;;;;25.55;16.70;;;13.00;99.90;;;;;;5021746;28;20029;-76
2023/10/20 05:37:41;;;;;;;24.60;16.23;;;13.00;99.90;;;;;;5055585;28;20090;-77
2023/10/20 05:40:07;;;;;;;22.35;15.05;;;13.00;99.90;;;;;;5038803;28;20056;-78
2023/10/20 05:42:33;;;;;;;20.95;14.75;;;13.00;99.90;;;;;;5055712;28;20029;-76
2023/10/20 05:45:02;;;;;;;22.23;14.07;;;13.00;99.90;;;;;;5022314;28;20068;-77
2023/10/20 05:47:28;;;;;;;21.00;13.15;;;13.00;99.90;;;;;;5038434;28;20083;-77
2023/10/20 05:49:56;;;;;;;21.98;13.60;;;13.00;99.90;;;;;;5055261;28;20017;-76
2023/10/20 05:52:22;;;;;;;21.27;13.60;;;12.90;99.90;;;;;;5038045;28;20029;-76
2023/10/20 05:54:49;;;;;;;21.52;12.88;;;13.00;99.90;;;;;;5055289;28;20100;-78
2023/10/20 05:57:15;;;;;;;19.35;12.98;;;13.00;99.90;;;;;;5055404;28;20174;-76
2023/10/20 05:59:41;;;;;;;15.45;10.90;;;13.00;99.90;;;;;;5054606;28;20064;-78
2023/10/20 06:02:07;;;;;;;15.57;11.98;;;13.00;99.90;;;;;;5037747;28;20037;-77
2023/10/20 06:04:34;;;;;;;15.38;10.38;;;13.00;99.90;;;;;;5055242;28;20036;-79
2023/10/20 06:07:01;;;;;;;15.48;10.30;;;13.00;99.90;;;;;;5037557;28;20079;-77
2023/10/20 06:09:27;;;;;;;15.90;11.13;;;12.90;99.90;;;;;;5055171;28;20025;-78
2023/10/20 06:11:53;;;;;;;17.42;11.38;;;12.90;99.90;;;;;;5055681;28;20043;-78
2023/10/20 06:14:20;;;;;;;18.50;12.40;;;12.80;99.90;;;;;;5037591;28;20471;-79
2023/10/20 06:16:46;;;;;;;20.65;13.88;;;12.80;99.90;;;;;;5037254;28;20044;-77
2023/10/20 06:19:12;;;;;;;20.38;12.88;;;12.70;99.90;;;;;;5055403;28;20028;-78
2023/10/20 06:21:38;;;;;;;25.45;15.75;;;12.70;99.90;;;;;;5054862;28;20037;-78
2023/10/20 06:24:04;;;;;;;23.00;14.82;;;12.70;99.90;;;;;;5055258;28;20035;-79
2023/10/20 06:26:30;;;;;;;22.95;15.57;;;12.60;99.90;;;;;;5054849;28;20025;-78
2023/10/20 06:28:56;;;;;;;25.23;16.58;;;12.60;99.90;;;;;;5037058;28;20035;-79
2023/10/20 06:31:29;;;;;;;28.67;16.77;;;12.50;99.90;;;;;;5037205;28;20076;-80
2023/10/20 06:34:00;;;;;;;29.83;17.77;;;12.50;99.90;;;;;;5037032;28;20375;-78
2023/10/20 06:36:27;;;;;;;35.75;19.40;;;12.60;99.90;;;;;;5037190;28;20033;-80
2023/10/20 06:38:53;;;;;;;29.75;17.77;;;12.50;99.90;;;;;;5020381;28;20472;-79
2023/10/20 06:41:18;;;;;;;30.05;18.25;;;12.50;99.90;;;;;;5036534;28;20074;-78
2023/10/20 06:43:44;;;;;;;30.17;18.10;;;12.60;99.90;;;;;;5054720;28;20032;-79
2023/10/20 06:46:10;;;;;;;35.13;19.65;;;12.60;99.90;;;;;;5054921;28;20026;-80
2023/10/20 06:48:36;;;;;;;30.83;18.67;;;12.50;99.90;;;;;;5054608;28;20021;-82
2023/10/20 06:51:02;;;;;;;34.30;18.50;;;12.50;99.90;;;;;;5054405;28;20053;-81
2023/10/20 06:53:28;;;;;;;30.77;17.92;;;12.50;99.90;;;;;;5055173;28;20338;-80
2023/10/20 06:55:55;;;;;;;27.52;17.13;;;12.40;99.90;;;;;;5054554;28;20446;-83
2023/10/20 06:58:21;;;;;;;30.17;17.13;;;12.40;99.90;;;;;;5020232;28;20025;-82
2023/10/20 07:00:47;;;;;;;27.75;16.30;;;12.40;99.90;;;;;;5054065;28;20029;-83
2023/10/20 07:03:13;;;;;;;28.27;16.83;;;12.40;99.90;;;;;;5036378;28;20033;-81
2023/10/20 07:05:42;;;;;;;29.00;15.50;;;12.50;99.90;;;;;;5053962;28;20029;-78
2023/10/20 07:08:08;;;;;;;23.92;14.88;;;12.50;99.90;;;;;;5053437;28;20084;-78
2023/10/20 07:10:38;;;;;;;23.33;14.45;;;12.50;99.90;;;;;;5019302;28;20056;-77
2023/10/20 07:13:08;;;;;;;19.73;12.73;;;12.40;99.90;;;;;;5035396;28;20380;-78
2023/10/20 07:15:38;;;;;;;22.45;13.93;;;12.40;99.90;;;;;;5035401;28;20033;-77
2023/10/20 07:18:05;;;;;;;21.95;12.77;;;12.40;99.90;;;;;;5053402;28;20021;-77
2023/10/20 07:20:32;;;;;;;21.55;13.35;;;12.30;99.90;;;;;;5053627;28;20030;-76
2023/10/20 07:22:58;;;;;;;20.45;11.95;;;12.40;99.90;;;;;;5035479;28;20041;-77
2023/10/20 07:25:24;;;;;;;19.88;11.82;;;12.40;99.90;;;;;;5053389;28;20028;-77
2023/10/20 07:27:50;;;;;;;16.98;10.93;;;12.50;99.90;;;;;;5053873;28;20029;-77
2023/10/20 07:30:19;;;;;;;17.58;10.90;;;12.50;99.90;;;;;;5053205;28;20102;-74
2023/10/20 07:32:44;;;;;;;16.25;10.52;;;12.40;99.90;;;;;;5035369;28;20479;-77
2023/10/20 07:35:11;;;;;;;16.33;9.13;;;12.40;99.90;;;;;;5053387;28;20024;-76
2023/10/20 07:37:37;;;;;;;15.43;9.30;;;12.30;99.90;;;;;;5036493;28;20029;-76
2023/10/20 07:40:04;;;;;;;14.88;9.45;;;12.30;99.90;;;;;;5036309;28;20025;-76
2023/10/20 07:42:31;;;;;;;12.35;8.15;;;12.30;99.90;;;;;;5036992;28;20102;-76
2023/10/20 07:44:58;;;;;;;13.52;8.45;;;12.30;99.90;;;;;;5055746;28;20064;-76
2023/10/20 07:47:24;;;;;;;15.85;8.80;;;12.20;99.90;;;;;;5055611;28;20029;-76
2023/10/20 07:49:51;;;;;;;11.93;7.43;;;12.20;99.90;;;;;;5055189;28;20055;-78
2023/10/20 07:52:17;;;;;;;13.65;7.68;;;12.20;99.90;;;;;;5056246;28;20041;-78
2023/10/20 07:54:43;;;;;;;13.25;7.40;;;12.20;99.90;;;;;;5039197;28;20094;-77
2023/10/20 07:57:10;;;;;;;10.50;6.85;;;12.20;99.90;;;;;;5039849;28;20029;-77
2023/10/20 07:59:36;;;;;;;11.45;7.63;;;12.20;99.90;;;;;;5023090;28;20033;-77
2023/10/20 08:02:05;;;;;;;9.52;6.68;;;12.20;99.90;;;;;;5055538;28;20041;-77
2023/10/20 08:04:34;;;;;;;12.18;7.30;;;12.30;99.90;;;;;;5036334;28;20357;-77
2023/10/20 08:06:59;;;;;;;10.52;6.97;;;12.20;99.90;;;;;;5054892;28;20082;-77
2023/10/20 08:09:28;;;;;;;9.27;6.50;;;12.10;99.90;;;;;;5037776;28;20029;-77
2023/10/20 08:11:56;;;;;;;9.07;5.75;;;12.10;99.90;;;;;;5036622;28;20036;-77
2023/10/20 08:14:23;;;;;;;9.48;5.50;;;12.10;99.90;;;;;;5053373;28;20457;-77
2023/10/20 08:16:49;;;;;;;8.93;5.28;;;12.10;99.90;;;;;;5053247;28;20116;-77
2023/10/20 08:19:15;;;;;;;8.77;5.53;;;12.10;99.90;;;;;;5052612;28;20029;-77
2023/10/20 08:21:42;;;;;;;8.45;5.00;;;12.10;99.90;;;;;;5034567;28;20041;-76
2023/10/20 08:24:08;;;;;;;6.90;4.88;;;12.10;99.90;;;;;;5022924;28;20057;-77
2023/10/20 08:26:33;;;;;;;6.07;4.13;;;12.20;99.90;;;;;;5056933;28;20091;-77
2023/10/20 08:28:59;;;;;;;7.05;4.10;;;12.30;99.90;;;;;;5039417;28;20480;-76
2023/10/20 08:31:25;;;;;;;5.55;4.03;;;12.30;99.90;;;;;;5038785;28;20033;-77
2023/10/20 08:33:52;;;;;;;5.18;3.67;;;12.30;99.90;;;;;;5056722;28;20065;-77
2023/10/20 08:36:22;;;;;;;6.15;3.92;;;12.10;99.90;;;;;;5038980;28;20025;-77
2023/10/20 08:38:52;;;;;;;5.38;3.40;;;12.10;99.90;;;;;;5057166;28;20033;-77
2023/10/20 08:41:20;;;;;;;7.97;4.20;;;12.10;99.90;;;;;;5056748;28;20037;-77
2023/10/20 08:43:46;;;;;;;4.38;3.15;;;12.00;99.90;;;;;;5056259;28;20453;-81
2023/10/20 08:46:14;;;;;;;3.88;2.65;;;11.90;99.90;;;;;;5055869;28;20037;-77
2023/10/20 08:48:41;;;;;;;4.82;2.70;;;11.90;99.90;;;;;;5038197;28;20067;-78
2023/10/20 08:51:08;;;;;;;3.63;2.33;;;11.80;99.90;;;;;;5021453;28;20077;-77
2023/10/20 08:53:36;;;;;;;3.40;2.20;;;11.90;99.90;;;;;;5021796;28;20374;-76
2023/10/20 08:56:03;;;;;;;5.07;2.50;;;11.80;99.90;;;;;;5038149;28;20085;-77
2023/10/20 08:58:29;;;;;;;3.60;2.20;;;11.70;99.90;;;;;;5038641;28;20407;-77
2023/10/20 09:00:56;;;;;;;3.35;2.10;;;11.80;99.90;;;;;;5056240;28;20104;-76
2023/10/20 09:03:22;;;;;;;2.85;1.90;;;11.80;99.90;;;;;;5038068;28;20033;-76
2023/10/20 09:05:48;;;;;;;2.63;2.03;;;11.80;99.90;;;;;;5056517;28;20397;-76
2023/10/20 09:08:14;;;;;;;4.13;1.73;;;11.70;99.90;;;;;;5038147;28;20043;-76
2023/10/20 09:10:45;;;;;;;3.15;1.77;;;11.70;99.90;;;;;;5055598;28;20096;-74
2023/10/20 09:13:11;;;;;;;2.50;1.55;;;11.70;99.90;;;;;;5038427;28;20043;-77
2023/10/20 09:15:37;;;;;;;2.15;1.33;;;11.50;99.90;;;;;;5038099;28;20411;-76
2023/10/20 09:18:07;;;;;;;4.05;1.45;;;11.60;99.90;;;;;;5037592;28;20033;-76
2023/10/20 09:20:33;;;;;;;2.63;1.40;;;11.60;99.90;;;;;;5055605;28;20057;-76
2023/10/20 09:22:58;;;;;;;1.75;1.10;;;11.60;99.90;;;;;;5037933;28;20091;-77
2023/10/20 09:25:25;;;;;;;2.75;1.10;;;11.50;99.90;;;;;;5055502;28;20033;-76
2023/10/20 09:27:51;;;;;;;2.85;1.40;;;11.60;99.90;;;;;;5055535;28;20029;-76
2023/10/20 09:30:18;;;;;;;2.45;1.10;;;11.50;99.90;;;;;;5055241;28;20442;-77
2023/10/20 09:32:43;;;;;;;1.50;1.00;;;11.50;99.90;;;;;;5037409;28;20047;-77
2023/10/20 09:35:10;;;;;;;1.85;1.25;;;11.50;99.90;;;;;;5054562;28;20108;-77
2023/10/20 09:37:36;;;;;;;1.92;1.13;;;11.60;99.90;;;;;;5037423;28;20420;-77
2023/10/20 09:40:07;;;;;;;2.00;1.00;;;11.60;99.90;;;;;;5055411;28;20036;-77
2023/10/20 09:42:49;;;;;;;1.90;1.00;;;11.60;99.90;;;;;;5037624;28;20070;-77
2023/10/20 09:45:17;;;;;;;2.37;0.90;;;11.70;99.90;;;;;;5055478;28;20100;-77
2023/10/20 09:47:45;;;;;;;2.45;0.60;;;11.80;99.90;;;;;;5054662;28;20078;-76
2023/10/20 09:50:18;;;;;;;1.75;0.55;;;11.80;99.90;;;;;;5055025;28;20049;-77
2023/10/20 09:52:43;;;;;;;5.18;0.77;;;11.70;99.90;;;;;;5036588;28;20119;-77
2023/10/20 09:55:11;;;;;;;1.65;0.50;;;11.60;99.90;;;;;;5036957;28;20033;-77
2023/10/20 09:57:37;;;;;;;3.45;0.50;;;11.60;99.90;;;;;;5037548;28;20550;-77
2023/10/20 10:00:09;;;;;;;1.75;0.52;;;11.50;99.90;;;;;;5037495;28;20053;-76
2023/10/20 10:02:34;;;;;;;1.17;0.60;;;11.50;99.90;;;;;;5054660;28;20041;-78
2023/10/20 10:05:00;;;;;;;1.02;0.40;;;11.50;99.90;;;;;;5054784;28;20036;-78
2023/10/20 10:07:32;;;;;;;1.05;0.30;;;11.60;99.90;;;;;;5037258;28;20080;-77
2023/10/20 10:09:58;;;;;;;0.60;0.22;;;11.70;99.90;;;;;;5040539;28;20099;-76
2023/10/20 10:12:27;;;;;;;1.05;0.30;;;11.80;99.90;;;;;;5058042;28;20048;-76
2023/10/20 10:15:07;;;;;;;2.03;0.30;;;11.80;99.90;;;;;;5056978;28;20056;-77
2023/10/20 10:17:47;;;;;;;0.95;0.30;;;11.80;99.90;;;;;;5056474;28;20477;-76
2023/10/20 10:20:27;;;;;;;0.90;0.40;;;11.80;99.90;;;;;;5055547;28;20035;-76
2023/10/20 10:23:05;;;;;;;0.93;0.35;;;11.80;99.90;;;;;;5036619;28;20424;-76
2023/10/20 10:25:39;;;;;;;1.00;0.38;;;11.70;99.90;;;;;;5037057;28;20056;-77
2023/10/20 10:28:19;;;;;;;0.50;0.30;;;11.70;99.90;;;;;;5036594;28;20036;-77
2023/10/20 10:30:48;;;;;;;1.95;0.30;;;11.70;99.90;;;;;;5054290;28;20025;-76
2023/10/20 10:33:20;;;;;;;2.20;0.45;;;11.70;99.90;;;;;;5054158;28;20024;-77
2023/10/20 10:35:46;;;;;;;0.80;0.47;;;11.70;99.90;;;;;;5054107;28;20089;-77
2023/10/20 10:38:20;;;;;;;1.30;0.40;;;11.70;99.90;;;;;;5036753;28;20272;-77
2023/10/20 10:40:46;;;;;;;0.93;0.50;;;11.70;99.90;;;;;;5054131;28;20475;-76
2023/10/20 10:43:19;;;;;;;0.70;0.30;;;11.80;99.90;;;;;;5053718;28;20037;-76
2023/10/20 10:45:50;;;;;;;0.52;0.30;;;11.80;99.90;;;;;;5053609;28;20020;-76
2023/10/20 10:48:18;;;;;;;1.42;0.45;;;11.90;99.90;;;;;;5054345;28;20087;-77
2023/10/20 10:50:45;;;;;;;0.65;0.30;;;11.90;99.90;;;;;;5035742;28;20049;-78
2023/10/20 10:53:12;;;;;;;2.25;0.63;;;12.00;99.90;;;;;;5053779;28;20025;-77
2023/10/20 10:55:38;;;;;;;0.85;0.43;;;11.90;99.90;;;;;;5053699;28;20453;-77
2023/10/20 10:58:16;;;;;;;1.17;0.50;;;11.90;99.90;;;;;;5053565;28;20029;-77
2023/10/20 11:00:45;;;;;;;1.38;0.30;;;11.90;99.90;;;;;;5036173;28;20041;-77
2023/10/20 11:03:13;;;;;;;1.10;0.25;;;12.00;99.90;;;;;;5053453;28;20090;-77
2023/10/20 11:05:39;;;;;;;1.70;0.30;;;12.00;99.90;;;;;;5053533;28;20072;-76
2023/10/20 11:08:10;;;;;;;1.35;0.43;;;12.00;99.90;;;;;;5053189;28;20033;-76
2023/10/20 11:10:37;;;;;;;1.33;0.40;;;12.00;99.90;;;;;;5053680;28;20064;-78
2023/10/20 11:13:10;;;;;;;3.08;0.50;;;12.00;99.90;;;;;;5053349;28;20048;-76
2023/10/20 11:15:37;;;;;;;0.40;0.20;;;12.00;99.90;;;;;;5053201;28;20078;-76
2023/10/20 11:18:04;;;;;;;0.52;0.20;;;11.90;99.90;;;;;;5053550;28;20436;-79
2023/10/20 11:20:43;;;;;;;0.63;0.17;;;11.90;99.90;;;;;;5053697;28;20028;-80
2023/10/20 11:23:12;;;;;;;2.10;0.20;;;11.90;99.90;;;;;;5053513;28;20087;-78
2023/10/20 11:25:40;;;;;;;1.15;0.35;;;11.80;99.90;;;;;;5053482;28;20549;-78
2023/10/20 11:28:07;;;;;;;0.40;0.20;;;11.80;99.90;;;;;;5034995;28;20033;-78
2023/10/20 11:30:37;;;;;;;2.22;0.40;;;11.80;99.90;;;;;;5035425;28;20028;-79
2023/10/20 11:33:05;;;;;;;0.65;0.25;;;11.80;99.90;;;;;;5053055;28;20031;-78
2023/10/20 11:35:31;;;;;;;1.98;0.50;;;11.80;99.90;;;;;;5053120;28;20102;-78
2023/10/20 11:37:58;;;;;;;0.50;0.20;;;11.80;99.90;;;;;;5035598;28;20025;-78
2023/10/20 11:40:26;;;;;;;0.85;0.40;;;11.90;99.90;;;;;;5052940;28;20029;-79
2023/10/20 11:42:52;;;;;;;0.98;0.30;;;11.90;99.90;;;;;;5035014;28;20068;-76
2023/10/20 11:45:18;;;;;;;1.25;0.40;;;11.80;99.90;;;;;;5052824;28;20087;-75
2023/10/20 11:47:44;;;;;;;1.20;0.30;;;11.80;99.90;;;;;;5052347;28;20032;-76
2023/10/20 11:50:11;;;;;;;0.60;0.20;;;11.80;99.90;;;;;;5034737;28;20051;-76
2023/10/20 11:52:37;;;;;;;0.95;0.30;;;11.80;99.90;;;;;;5052462;28;20041;-78
2023/10/20 11:55:03;;;;;;;1.38;0.20;;;12.00;99.90;;;;;;5018776;28;20033;-77
2023/10/20 11:57:29;;;;;;;0.85;0.25;;;11.90;99.90;;;;;;5052906;28;20040;-75
2023/10/20 11:59:55;;;;;;;1.88;0.30;;;11.90;99.90;;;;;;5053011;28;20025;-76
2023/10/20 12:02:21;;;;;;;0.50;0.20;;;11.90;99.90;;;;;;5034288;28;20300;-75
2023/10/20 12:04:46;;;;;;;2.42;0.28;;;12.00;99.90;;;;;;5035014;28;20036;-76
2023/10/20 12:07:12;;;;;;;0.80;0.30;;;12.00;99.90;;;;;;5034877;28;20491;-76
2023/10/20 12:09:38;;;;;;;0.45;0.13;;;12.00;99.90;;;;;;5035298;28;20167;-76
2023/10/20 12:12:04;;;;;;;0.50;0.13;;;12.00;99.90;;;;;;5052366;28;20534;-76
2023/10/20 12:14:29;;;;;;;0.32;0.13;;;11.80;99.90;;;;;;5052343;28;20029;-75
2023/10/20 12:16:55;;;;;;;0.60;0.20;;;11.80;99.90;;;;;;5052511;28;20033;-76
2023/10/20 12:19:20;;;;;;;1.13;0.20;;;11.80;99.90;;;;;;5034902;28;20078;-76
2023/10/20 12:21:46;;;;;;;0.45;0.20;;;11.80;99.90;;;;;;5052270;28;20041;-76
2023/10/20 12:24:12;;;;;;;0.85;0.20;;;11.80;99.90;;;;;;5034365;28;20060;-78
2023/10/20 12:26:37;;;;;;;1.35;0.20;;;11.80;99.90;;;;;;5052560;28;20484;-76
2023/10/20 12:29:03;;;;;;;0.68;0.22;;;11.90;99.90;;;;;;5035410;28;20084;-76
2023/10/20 12:31:29;;;;;;;0.40;0.20;;;11.90;99.90;;;;;;5053505;28;20040;-76
2023/10/20 12:33:55;;;;;;;1.90;0.20;;;12.00;99.90;;;;;;5054038;28;20040;-76
2023/10/20 12:36:21;;;;;;;0.80;0.20;;;12.00;99.90;;;;;;5053943;28;20029;-76
2023/10/20 12:38:47;;;;;;;0.68;0.40;;;12.00;99.90;;;;;;5053537;28;20025;-76
2023/10/20 12:41:16;;;;;;;1.02;0.30;;;12.00;99.90;;;;;;5052869;28;20096;-76
2023/10/20 12:43:42;;;;;;;0.55;0.20;;;11.90;99.90;;;;;;5052765;28;20031;-76
2023/10/20 12:46:11;;;;;;;0.45;0.30;;;11.80;99.90;;;;;;5034740;28;20090;-76
2023/10/20 12:48:37;;;;;;;1.15;0.30;;;11.90;99.90;;;;;;5052370;28;20086;-75
2023/10/20 12:51:12;;;;;;;0.57;0.28;;;11.90;99.90;;;;;;5034129;28;20049;-75
2023/10/20 12:53:39;;;;;;;0.65;0.20;;;11.80;99.90;;;;;;5051897;28;20030;-76
2023/10/20 12:56:05;;;;;;;0.82;0.20;;;11.80;99.90;;;;;;5035027;28;20044;-74
2023/10/20 12:58:32;;;;;;;0.40;0.20;;;11.90;99.90;;;;;;5033917;28;20029;-77
2023/10/20 13:00:58;;;;;;;0.82;0.30;;;11.90;99.90;;;;;;5051766;28;20033;-76
2023/10/20 13:03:26;;;;;;;1.10;0.43;;;11.80;99.90;;;;;;5034136;28;20036;-76
2023/10/20 13:05:54;;;;;;;2.67;0.35;;;11.80;99.90;;;;;;5052537;28;20052;-77